Thunder radar more information blitzortung!


Radar de pluja more information rain snow radar


Visita la nostra xarxa de llocs de meteo:

Template documentation
and downloads

And another site



No particular awareness of the weather is required.    There are no Weather-warnings

Pagina Historial Weather Underground text

Diari Resum Juliol 24, 2017 Unitats:  Imperial    Mètric   Tant
« Previous Dia
SegĂźent Dia »
Diari Setmana Mensual Anual Personalitzada
  Maxima: Minima: Media:
Temperatura: TemperatureC °F 16.8 °F 25.6 °F
Punt de rosada: DewpointC °F 11.9 °F 16 °F
Humitat: Humidity % 31 % 58 %
Wind Speed: WindSpeedKMH mph 0.0 mph 8.9 mph
RĂ fegues de vent: WindSpeedGustKMH mph - -
Vent:- - SSE
Pression baro: PressurehPa in 1010.7 in -
Precipitacions: 0.0 in    
Historical Graphs
 
 
Dades de taula per Juliol 24, 2017
Temps Temperatura Punt de rosada Pression baro Vent Wind Speed RĂ fegues de vent Humitat Rainfall Rate (Hourly)
TemperatureC °F DewpointC °F PressurehPa in Calm     Humidity % HourlyPrecipMM in
00:03 19.0 °F 17.3 °F 1015.8 in Calm     90 % 0.0 in
00:05 17.3 °F 16.3 °F 1013.8 in WSW 1.6 mph 3.2 mph 94 % 0.0 in
00:15 17.2 °F 16.1 °F 1013.8 in SW 3.2 mph 4.8 mph 93 % 0.0 in
00:25 17.1 °F 15.9 °F 1013.8 in SW 3.2 mph 4.8 mph 93 % 0.0 in
00:35 17.1 °F 15.9 °F 1013.8 in SW 3.2 mph 4.8 mph 93 % 0.0 in
00:45 17.1 °F 15.9 °F 1013.8 in WSW 3.2 mph 4.8 mph 93 % 0.0 in
00:55 17.1 °F 15.9 °F 1013.8 in WSW 1.6 mph 3.2 mph 93 % 0.0 in
01:05 17.0 °F 16.0 °F 1013.8 in SW 1.6 mph 4.8 mph 94 % 0.0 in
01:15 17.0 °F 16.0 °F 1013.8 in Calm   3.2 mph 94 % 0.0 in
01:25 17.0 °F 16.0 °F 1013.8 in Calm     94 % 0.0 in
01:35 16.9 °F 16.1 °F 1013.8 in SW 3.2 mph 4.8 mph 95 % 0.0 in
01:45 16.8 °F 16.0 °F 1013.8 in Calm   4.8 mph 95 % 0.0 in
01:55 16.8 °F 16.0 °F 1013.8 in Calm     95 % 0.0 in
02:05 16.9 °F 16.1 °F 1012.8 in Calm     95 % 0.0 in
02:15 17.2 °F 16.4 °F 1012.8 in Calm   1.6 mph 95 % 0.0 in
02:25 17.3 °F 16.5 °F 1013.8 in Calm   1.6 mph 95 % 0.0 in
02:35 17.4 °F 16.6 °F 1013.8 in ENE 1.6 mph 1.6 mph 95 % 0.0 in
02:45 17.6 °F 16.8 °F 1013.8 in Calm     95 % 0.0 in
02:55 18.0 °F 16.8 °F 1013.8 in Calm   3.2 mph 93 % 0.0 in
03:05 18.5 °F 17.2 °F 1013.8 in Calm   1.6 mph 92 % 0.0 in
03:15 19.1 °F 17.4 °F 1013.8 in NE 1.6 mph 1.6 mph 90 % 0.0 in
03:25 20.2 °F 17.9 °F 1013.8 in ENE 3.2 mph 3.2 mph 87 % 0.0 in
03:35 20.8 °F 17.6 °F 1013.8 in ENE 3.2 mph 4.8 mph 82 % 0.0 in
03:45 21.1 °F 17.7 °F 1013.8 in NE 1.6 mph 3.2 mph 81 % 0.0 in
03:55 21.1 °F 17.1 °F 1013.8 in WSW 3.2 mph 6.4 mph 78 % 0.0 in
04:05 21.2 °F 16.8 °F 1012.8 in WSW 3.2 mph 4.8 mph 76 % 0.0 in
04:15 21.7 °F 16.9 °F 1012.8 in WSW 1.6 mph 3.2 mph 74 % 0.0 in
04:25 22.8 °F 17.7 °F 1012.8 in West 1.6 mph 4.8 mph 73 % 0.0 in
04:35 22.8 °F 17.5 °F 1013.8 in WNW 4.8 mph 8.0 mph 72 % 0.0 in
04:45 23.1 °F 17.1 °F 1013.8 in WNW 3.2 mph 8.0 mph 69 % 0.0 in
04:55 23.7 °F 16.9 °F 1013.8 in NNW 4.8 mph 6.4 mph 66 % 0.0 in
05:00 23.8 °F 17.6 °F 1013.8 in North 3.2 mph 4.8 mph 68 % 0.0 in
10:04 24.0 °F 17.3 °F 1013.8 in SSW 3.7 mph 3.7 mph 66 % 0.0 in
10:09 24.3 °F 17.3 °F 1013.8 in NW 5.6 mph 5.6 mph 65 % 0.0 in
10:14 24.4 °F 17.4 °F 1013.8 in WNW 3.9 mph 3.9 mph 65 % 0.0 in
10:19 24.9 °F 17.6 °F 1013.8 in West 4.7 mph 4.7 mph 64 % 0.0 in
10:24 24.6 °F 17.1 °F 1013.8 in West 13.0 mph 13.0 mph 63 % 0.0 in
10:29 24.7 °F 17.2 °F 1013.8 in West 7.4 mph 7.4 mph 63 % 0.0 in
10:34 24.9 °F 17.1 °F 1013.8 in West 5.6 mph 5.6 mph 62 % 0.0 in
10:39 24.9 °F 17.1 °F 1013.8 in WSW 7.4 mph 7.4 mph 62 % 0.0 in
10:44 24.7 °F 16.2 °F 1013.8 in North 14.8 mph 14.8 mph 59 % 0.0 in
10:49 25.2 °F 16.3 °F 1013.8 in WNW 11.1 mph 11.1 mph 58 % 0.0 in
10:54 25.3 °F 16.2 °F 1013.8 in West 14.8 mph 14.8 mph 57 % 0.0 in
10:59 25.2 °F 15.5 °F 1013.8 in West 13.0 mph 13.0 mph 55 % 0.0 in
11:04 25.6 °F 16.2 °F 1013.8 in SSW 7.4 mph 7.4 mph 56 % 0.0 in
11:09 25.9 °F 16.4 °F 1013.8 in West 7.4 mph 7.4 mph 56 % 0.0 in
11:14 26.2 °F 16.4 °F 1013.8 in WNW 5.6 mph 5.8 mph 55 % 0.0 in
11:19 26.4 °F 16.3 °F 1013.8 in WSW 7.4 mph 7.4 mph 54 % 0.0 in
11:24 26.6 °F 16.5 °F 1013.8 in SW 5.8 mph 5.8 mph 54 % 0.0 in
11:29 26.9 °F 16.5 °F 1013.8 in West 10.3 mph 10.3 mph 53 % 0.0 in
11:34 26.8 °F 16.1 °F 1013.8 in SW 11.1 mph 11.1 mph 52 % 0.0 in
11:39 27.0 °F 16.0 °F 1013.8 in WSW 9.3 mph 9.3 mph 51 % 0.0 in
11:44 27.2 °F 16.2 °F 1013.8 in SW 7.6 mph 7.6 mph 51 % 0.0 in
11:49 27.1 °F 15.4 °F 1013.8 in West 18.5 mph 18.5 mph 49 % 0.0 in
11:54 27.3 °F 15.7 °F 1013.8 in NNW 24.1 mph 24.1 mph 49 % 0.0 in
11:59 27.4 °F 15.7 °F 1013.8 in SW 9.3 mph 9.3 mph 49 % 0.0 in
12:04 27.6 °F 15.9 °F 1013.8 in WSW 24.1 mph 24.1 mph 49 % 0.0 in
12:09 27.8 °F 16.1 °F 1013.8 in WNW 14.8 mph 14.8 mph 49 % 0.0 in
12:14 28.0 °F 15.9 °F 1013.8 in SSW 9.3 mph 9.3 mph 48 % 0.0 in
12:19 28.2 °F 16.2 °F 1013.8 in SW 14.8 mph 14.8 mph 48 % 0.0 in
12:24 28.8 °F 17.0 °F 1013.8 in SW 5.6 mph 5.6 mph 49 % 0.0 in
12:29 29.1 °F 16.6 °F 1013.8 in West 7.9 mph 7.9 mph 47 % 0.0 in
12:34 29.2 °F 16.7 °F 1013.8 in West 5.6 mph 5.6 mph 47 % 0.0 in
12:39 29.5 °F 17.0 °F 1013.8 in WNW 5.3 mph 5.3 mph 47 % 0.0 in
12:44 29.5 °F 16.7 °F 1013.8 in SW 13.0 mph 13.0 mph 46 % 0.0 in
12:49 29.5 °F 16.7 °F 1013.8 in SW 5.8 mph 6.1 mph 46 % 0.0 in
12:54 29.5 °F 16.3 °F 1013.8 in SW 11.1 mph 11.1 mph 45 % 0.0 in
12:59 29.7 °F 16.2 °F 1013.8 in WSW 13.0 mph 13.0 mph 44 % 0.0 in
13:04 29.7 °F 15.8 °F 1012.8 in WSW 14.8 mph 14.8 mph 43 % 0.0 in
13:09 30.3 °F 16.3 °F 1012.8 in West 9.3 mph 9.3 mph 43 % 0.0 in
13:14 30.0 °F 15.7 °F 1012.8 in SW 16.7 mph 16.7 mph 42 % 0.0 in
13:19 30.3 °F 15.9 °F 1012.8 in SW 11.1 mph 11.1 mph 42 % 0.0 in
13:24 30.7 °F 16.3 °F 1012.8 in SW 6.1 mph 6.1 mph 42 % 0.0 in
13:29 30.6 °F 16.2 °F 1012.8 in West 9.7 mph 9.7 mph 42 % 0.0 in
13:34 30.3 °F 15.6 °F 1012.8 in West 7.4 mph 7.4 mph 41 % 0.0 in
13:39 30.4 °F 15.3 °F 1012.8 in West 9.3 mph 9.3 mph 40 % 0.0 in
13:44 30.6 °F 15.4 °F 1012.8 in West 9.3 mph 9.3 mph 40 % 0.0 in
13:49 31.2 °F 16.0 °F 1011.7 in West 11.1 mph 11.1 mph 40 % 0.0 in
13:54 31.0 °F 15.4 °F 1011.7 in North 9.3 mph 9.3 mph 39 % 0.0 in
13:59 30.9 °F 15.3 °F 1011.7 in WSW 13.0 mph 13.0 mph 39 % 0.0 in
14:04 31.1 °F 15.5 °F 1012.8 in SW 11.1 mph 11.1 mph 39 % 0.0 in
14:09 31.4 °F 15.4 °F 1012.8 in WSW 5.6 mph 5.6 mph 38 % 0.0 in
14:14 31.1 °F 14.7 °F 1012.8 in WSW 11.1 mph 11.1 mph 37 % 0.0 in
14:19 31.8 °F 15.7 °F 1011.7 in WNW 5.8 mph 5.8 mph 38 % 0.0 in
14:24 32.2 °F 16.5 °F 1011.7 in SW 6.1 mph 6.1 mph 39 % 0.0 in
14:29 32.0 °F 15.9 °F 1011.7 in West 9.3 mph 9.3 mph 38 % 0.0 in
14:34 31.9 °F 15.8 °F 1011.7 in WSW 9.3 mph 9.3 mph 38 % 0.0 in
14:39 31.5 °F 15.1 °F 1011.7 in SW 7.4 mph 7.4 mph 37 % 0.0 in
14:44 31.8 °F 14.9 °F 1011.7 in WNW 5.6 mph 5.6 mph 36 % 0.0 in
14:49 32.5 °F 15.5 °F 1011.7 in WSW 9.7 mph 9.7 mph 36 % 0.0 in
14:54 32.8 °F 15.3 °F 1011.7 in South 9.3 mph 9.3 mph 35 % 0.0 in
14:59 33.2 °F 15.7 °F 1011.7 in WSW 9.3 mph 9.3 mph 35 % 0.0 in
15:04 32.9 °F 15.4 °F 1010.7 in South 5.6 mph 5.6 mph 35 % 0.0 in
15:10 33.2 °F 14.8 °F 1010.7 in West 9.3 mph 9.3 mph 33 % 0.0 in
15:15 33.9 °F 16.3 °F 1010.7 in SSW 5.6 mph 5.6 mph 35 % 0.0 in
15:20 33.8 °F 15.7 °F 1011.7 in West 7.4 mph 7.4 mph 34 % 0.0 in
15:25 33.5 °F 15.0 °F 1011.7 in WSW 7.4 mph 7.4 mph 33 % 0.0 in
15:30 33.9 °F 15.4 °F 1011.7 in SW 3.7 mph 5.3 mph 33 % 0.0 in
15:32 34.0 °F 15.4 °F 1011.7 in WSW 9.3 mph 9.3 mph 33 % 0.0 in
15:37 32.7 °F 13.3 °F 1011.7 in ESE 7.4 mph 7.4 mph 31 % 0.0 in
15:42 32.8 °F 13.9 °F 1011.7 in West 9.3 mph 9.3 mph 32 % 0.0 in
15:47 33.1 °F 14.2 °F 1011.7 in SSE 13.0 mph 13.0 mph 32 % 0.0 in
15:52 31.0 °F 13.7 °F 1011.7 in ESE 13.0 mph 13.0 mph 35 % 0.0 in
15:57 30.3 °F 14.0 °F 1011.7 in ENE 13.0 mph 13.0 mph 37 % 0.0 in
16:02 30.0 °F 14.6 °F 1011.7 in NE 14.8 mph 14.8 mph 39 % 0.0 in
16:07 30.2 °F 14.7 °F 1011.7 in East 14.8 mph 14.8 mph 39 % 0.0 in
16:12 29.9 °F 14.8 °F 1011.7 in East 19.8 mph 19.8 mph 40 % 0.0 in
16:17 29.4 °F 14.4 °F 1011.7 in ESE 22.2 mph 22.2 mph 40 % 0.0 in
16:22 29.3 °F 14.7 °F 1011.7 in ENE 16.7 mph 16.7 mph 41 % 0.0 in
16:27 29.5 °F 15.2 °F 1011.7 in ENE 16.7 mph 16.7 mph 42 % 0.0 in
16:32 29.8 °F 15.5 °F 1011.7 in NNE 11.1 mph 11.1 mph 42 % 0.0 in
16:37 29.9 °F 15.6 °F 1011.7 in East 13.0 mph 13.0 mph 42 % 0.0 in
16:42 29.9 °F 15.6 °F 1011.7 in ESE 20.4 mph 20.4 mph 42 % 0.0 in
16:43 29.8 °F 15.5 °F 1011.7 in ESE 11.1 mph 11.1 mph 42 % 0.0 in
16:48 29.7 °F 15.8 °F 1011.7 in ESE 11.1 mph 11.1 mph 43 % 0.0 in
16:53 29.7 °F 15.8 °F 1010.7 in ESE 13.0 mph 13.0 mph 43 % 0.0 in
16:58 29.4 °F 15.5 °F 1010.7 in ESE 18.5 mph 18.5 mph 43 % 0.0 in
17:03 29.4 °F 15.5 °F 1010.7 in ESE 16.7 mph 16.7 mph 43 % 0.0 in
17:08 29.4 °F 15.5 °F 1010.7 in ESE 14.8 mph 14.8 mph 43 % 0.0 in
17:13 29.4 °F 15.9 °F 1010.7 in ESE 18.5 mph 18.5 mph 44 % 0.0 in
17:18 29.3 °F 15.8 °F 1010.7 in ESE 16.7 mph 16.7 mph 44 % 0.0 in
17:23 29.3 °F 15.8 °F 1010.7 in ENE 18.5 mph 18.5 mph 44 % 0.0 in
17:28 29.1 °F 15.6 °F 1010.7 in East 16.7 mph 16.7 mph 44 % 0.0 in
17:33 29.0 °F 15.5 °F 1010.7 in ESE 22.2 mph 22.2 mph 44 % 0.0 in
17:38 28.9 °F 15.8 °F 1010.7 in East 19.0 mph 19.0 mph 45 % 0.0 in
17:43 28.5 °F 15.8 °F 1010.7 in SE 16.7 mph 16.7 mph 46 % 0.0 in
17:48 28.6 °F 15.8 °F 1010.7 in NE 11.1 mph 11.1 mph 46 % 0.0 in
17:53 28.6 °F 15.8 °F 1010.7 in SE 13.7 mph 13.7 mph 46 % 0.0 in
17:58 28.3 °F 15.6 °F 1010.7 in NE 23.0 mph 23.0 mph 46 % 0.0 in
18:03 28.2 °F 15.8 °F 1010.7 in NE 18.5 mph 18.5 mph 47 % 0.0 in
18:08 28.1 °F 15.7 °F 1010.7 in ESE 13.0 mph 13.0 mph 47 % 0.0 in
18:13 28.0 °F 15.6 °F 1010.7 in East 11.1 mph 11.1 mph 47 % 0.0 in
18:18 27.9 °F 15.6 °F 1010.7 in ESE 20.4 mph 20.4 mph 47 % 0.0 in
18:23 27.9 °F 15.6 °F 1010.7 in SSE 22.2 mph 22.2 mph 47 % 0.0 in
18:28 27.9 °F 15.6 °F 1010.7 in ESE 11.1 mph 11.1 mph 47 % 0.0 in
18:33 27.8 °F 15.4 °F 1010.7 in East 13.0 mph 13.0 mph 47 % 0.0 in
18:38 27.5 °F 15.5 °F 1011.7 in ENE 13.0 mph 13.0 mph 48 % 0.0 in
18:43 27.4 °F 15.7 °F 1011.7 in East 13.7 mph 13.7 mph 49 % 0.0 in
18:48 27.2 °F 15.6 °F 1011.7 in ENE 11.1 mph 11.1 mph 49 % 0.0 in
18:53 27.1 °F 15.4 °F 1010.7 in NNE 9.7 mph 9.7 mph 49 % 0.0 in
18:58 27.1 °F 15.8 °F 1010.7 in ENE 13.0 mph 13.0 mph 50 % 0.0 in
19:03 27.0 °F 15.4 °F 1010.7 in ESE 16.7 mph 16.7 mph 49 % 0.0 in
19:08 26.8 °F 15.8 °F 1010.7 in NNE 14.8 mph 14.8 mph 51 % 0.0 in
19:13 26.8 °F 15.5 °F 1010.7 in NNE 11.1 mph 11.1 mph 50 % 0.0 in
19:18 26.8 °F 15.8 °F 1010.7 in ENE 11.1 mph 11.1 mph 51 % 0.0 in
19:23 26.8 °F 15.8 °F 1011.7 in ENE 5.8 mph 5.8 mph 51 % 0.0 in
19:28 26.7 °F 15.7 °F 1011.7 in ESE 9.3 mph 9.3 mph 51 % 0.0 in
19:33 26.7 °F 15.7 °F 1011.7 in ESE 15.1 mph 15.1 mph 51 % 0.0 in
19:38 26.4 °F 15.4 °F 1011.7 in East 13.0 mph 13.0 mph 51 % 0.0 in
19:43 26.4 °F 15.4 °F 1011.7 in NE 13.0 mph 13.0 mph 51 % 0.0 in
19:48 26.2 °F 15.3 °F 1011.7 in East 12.2 mph 12.2 mph 51 % 0.0 in
19:53 26.0 °F 15.4 °F 1011.7 in ENE 9.7 mph 9.7 mph 52 % 0.0 in
19:58 25.9 °F 15.3 °F 1011.7 in East 9.3 mph 9.3 mph 52 % 0.0 in
20:03 25.7 °F 15.4 °F 1011.7 in East 14.8 mph 14.8 mph 53 % 0.0 in
20:08 25.5 °F 15.2 °F 1011.7 in ESE 9.3 mph 9.3 mph 53 % 0.0 in
20:13 25.4 °F 15.4 °F 1011.7 in NE 13.0 mph 13.0 mph 54 % 0.0 in
20:18 25.3 °F 15.3 °F 1011.7 in ENE 11.1 mph 11.1 mph 54 % 0.0 in
20:23 25.3 °F 15.3 °F 1010.7 in ESE 9.3 mph 9.3 mph 54 % 0.0 in
20:28 25.2 °F 15.2 °F 1010.7 in East 14.8 mph 14.8 mph 54 % 0.0 in
20:33 25.2 °F 15.5 °F 1010.7 in ENE 5.6 mph 5.6 mph 55 % 0.0 in
20:38 25.1 °F 15.4 °F 1011.7 in ESE 5.8 mph 5.8 mph 55 % 0.0 in
20:43 25.1 °F 15.4 °F 1011.7 in ESE 10.3 mph 10.3 mph 55 % 0.0 in
20:48 25.1 °F 15.7 °F 1011.7 in East 7.4 mph 7.4 mph 56 % 0.0 in
20:53 24.9 °F 15.8 °F 1011.7 in East 13.0 mph 13.0 mph 57 % 0.0 in
20:58 24.8 °F 15.7 °F 1011.7 in East 5.6 mph 5.6 mph 57 % 0.0 in
21:03 24.7 °F 15.6 °F 1011.7 in ESE 5.6 mph 5.6 mph 57 % 0.0 in
21:08 24.6 °F 15.5 °F 1012.8 in NE 9.3 mph 9.3 mph 57 % 0.0 in
21:13 24.5 °F 15.4 °F 1012.8 in ENE 9.3 mph 9.3 mph 57 % 0.0 in
21:15 21.8 °F 17.4 °F 1013.8 in NW 1.6 mph 3.2 mph 76 % 0.0 in
21:18 24.4 °F 15.3 °F 1012.8 in ESE 7.4 mph 7.4 mph 57 % 0.0 in
21:23 24.3 °F 15.2 °F 1012.8 in East 11.1 mph 11.1 mph 57 % 0.0 in
21:25 21.8 °F 17.6 °F 1013.8 in Calm   3.2 mph 77 % 0.0 in
21:28 24.2 °F 15.7 °F 1012.8 in ESE 11.1 mph 11.1 mph 59 % 0.0 in
21:33 24.1 °F 15.6 °F 1012.8 in NNE 5.6 mph 5.8 mph 59 % 0.0 in
21:35 21.8 °F 17.6 °F 1013.8 in WSW 1.6 mph 3.2 mph 77 % 0.0 in
21:38 24.0 °F 15.8 °F 1012.8 in East 9.3 mph 9.3 mph 60 % 0.0 in
21:43 24.0 °F 16.3 °F 1012.8 in ESE 13.0 mph 13.0 mph 62 % 0.0 in
21:45 21.8 °F 17.6 °F 1013.8 in WSW 1.6 mph 3.2 mph 77 % 0.0 in
21:48 23.9 °F 16.9 °F 1012.8 in NE 19.5 mph 19.5 mph 65 % 0.0 in
21:53 23.7 °F 16.7 °F 1013.8 in NNE 9.3 mph 9.3 mph 65 % 0.0 in
21:55 21.7 °F 17.7 °F 1013.8 in WSW 1.6 mph 3.2 mph 78 % 0.0 in
21:58 23.7 °F 16.9 °F 1013.8 in East 7.4 mph 7.4 mph 66 % 0.0 in
22:03 23.6 °F 17.3 °F 1013.8 in ESE 13.0 mph 13.0 mph 68 % 0.0 in
22:05 21.7 °F 17.5 °F 1013.8 in WSW 3.2 mph 4.8 mph 77 % 0.0 in
22:08 23.5 °F 17.5 °F 1013.8 in ESE 13.0 mph 13.0 mph 69 % 0.0 in
22:13 23.4 °F 17.4 °F 1013.8 in East 9.3 mph 9.3 mph 69 % 0.0 in
22:15 21.5 °F 17.1 °F 1013.8 in West 3.2 mph 6.4 mph 76 % 0.0 in
22:18 23.3 °F 17.7 °F 1013.8 in ESE 13.0 mph 13.0 mph 71 % 0.0 in
22:23 23.2 °F 17.7 °F 1013.8 in NE 9.3 mph 9.3 mph 71 % 0.0 in
22:25 21.5 °F 16.0 °F 1013.8 in West 4.8 mph 4.8 mph 71 % 0.0 in
22:28 23.2 °F 17.7 °F 1013.8 in ESE 9.3 mph 9.3 mph 71 % 0.0 in
22:33 23.1 °F 17.6 °F 1013.8 in ENE 7.4 mph 7.4 mph 71 % 0.0 in
22:35 21.6 °F 15.0 °F 1014.8 in West 4.8 mph 6.4 mph 66 % 0.0 in
22:38 23.1 °F 17.6 °F 1013.8 in SE 7.6 mph 7.6 mph 71 % 0.0 in
22:43 23.0 °F 17.7 °F 1013.8 in East 4.7 mph 4.7 mph 72 % 0.0 in
22:45 21.5 °F 14.7 °F 1014.8 in WSW 3.2 mph 4.8 mph 65 % 0.0 in
22:48 23.0 °F 17.9 °F 1013.8 in ENE 10.0 mph 10.0 mph 73 % 0.0 in
22:53 23.0 °F 17.9 °F 1013.8 in East 7.4 mph 7.4 mph 73 % 0.0 in
22:55 21.4 °F 14.1 °F 1013.8 in West 3.2 mph 6.4 mph 63 % 0.0 in
22:58 23.0 °F 17.9 °F 1013.8 in East 7.9 mph 7.9 mph 73 % 0.0 in
23:03 22.9 °F 17.8 °F 1013.8 in ESE 9.3 mph 9.3 mph 73 % 0.0 in
23:05 21.2 °F 13.4 °F 1013.8 in West 3.2 mph 4.8 mph 61 % 0.0 in
23:08 22.9 °F 18.0 °F 1013.8 in East 7.9 mph 7.9 mph 74 % 0.0 in
23:13 22.9 °F 18.0 °F 1013.8 in ESE 5.6 mph 5.6 mph 74 % 0.0 in
23:15 21.0 °F 12.9 °F 1013.8 in West 1.6 mph 3.2 mph 60 % 0.0 in
23:18 22.8 °F 17.9 °F 1013.8 in ENE 9.3 mph 9.3 mph 74 % 0.0 in
23:23 22.8 °F 17.9 °F 1013.8 in North 9.3 mph 9.3 mph 74 % 0.0 in
23:25 20.9 °F 12.8 °F 1013.8 in West 3.2 mph 3.2 mph 60 % 0.0 in
23:28 22.8 °F 17.9 °F 1013.8 in ENE 5.6 mph 5.6 mph 74 % 0.0 in
23:33 22.7 °F 17.8 °F 1013.8 in ENE 4.2 mph 4.2 mph 74 % 0.0 in
23:35 20.8 °F 12.5 °F 1013.8 in West 3.2 mph 6.4 mph 59 % 0.0 in
23:38 22.7 °F 17.8 °F 1013.8 in ENE 3.7 mph 3.7 mph 74 % 0.0 in
23:43 22.6 °F 17.7 °F 1013.8 in East 5.0 mph 5.0 mph 74 % 0.0 in
23:45 20.7 °F 12.4 °F 1013.8 in West 1.6 mph 6.4 mph 59 % 0.0 in
23:48 22.6 °F 17.7 °F 1013.8 in NE 5.6 mph 5.6 mph 74 % 0.0 in
23:53 22.5 °F 17.6 °F 1013.8 in NNE 7.4 mph 7.4 mph 74 % 0.0 in
23:55 20.5 °F 11.9 °F 1013.8 in West 3.2 mph 4.8 mph 58 % 0.0 in
23:58 22.5 °F 17.6 °F 1013.8 in East 5.6 mph 5.6 mph 74 % 0.0 in
Meteo Sesrovires
Elogis d' Weather Underground - 2 mb

Guio original per  Jim McMurry - jmcmurry@mwt.net Adaptat per a la plantilla per  Wim van der Kuil - Leuven-Template.eu

Trobareu la nostra informacio del temps tambe a:

Weather Underground

AWEKAS